sensor_id;sensor_type;location;lat;lon;timestamp;pressure;altitude;pressure_sealevel;temperature;humidity
52105;BME280;38103;42.776;23.112;2023-02-10T00:01:16;95656.94;;;-9.67;92.93
52105;BME280;38103;42.776;23.112;2023-02-10T00:03:43;95683.03;;;-9.59;93.91
52105;BME280;38103;42.776;23.112;2023-02-10T00:06:09;95676.50;;;-9.66;94.83
52105;BME280;38103;42.776;23.112;2023-02-10T00:08:35;95686.25;;;-9.74;95.58
52105;BME280;38103;42.776;23.112;2023-02-10T00:11:07;95676.38;;;-9.84;95.87
52105;BME280;38103;42.776;23.112;2023-02-10T00:13:33;95669.13;;;-9.93;97.33
52105;BME280;38103;42.776;23.112;2023-02-10T00:16:00;95671.09;;;-9.79;97.52
52105;BME280;38103;42.776;23.112;2023-02-10T00:18:27;95659.63;;;-9.70;97.88
52105;BME280;38103;42.776;23.112;2023-02-10T00:20:52;95592.34;;;-10.13;98.31
52105;BME280;38103;42.776;23.112;2023-02-10T00:23:18;95666.72;;;-9.56;97.25
52105;BME280;38103;42.776;23.112;2023-02-10T00:25:44;95671.50;;;-9.48;96.73
52105;BME280;38103;42.776;23.112;2023-02-10T00:28:10;95672.13;;;-9.43;96.62
52105;BME280;38103;42.776;23.112;2023-02-10T00:30:36;95652.03;;;-9.53;96.39
52105;BME280;38103;42.776;23.112;2023-02-10T00:33:03;95659.44;;;-9.46;95.64
52105;BME280;38103;42.776;23.112;2023-02-10T00:35:28;95669.41;;;-9.40;96.13
52105;BME280;38103;42.776;23.112;2023-02-10T00:37:54;95665.47;;;-9.47;96.03
52105;BME280;38103;42.776;23.112;2023-02-10T00:40:19;95664.78;;;-9.32;94.11
52105;BME280;38103;42.776;23.112;2023-02-10T00:42:44;95659.44;;;-9.27;94.01
52105;BME280;38103;42.776;23.112;2023-02-10T00:45:10;95652.84;;;-9.33;93.26
52105;BME280;38103;42.776;23.112;2023-02-10T00:47:35;95652.84;;;-9.33;94.03
52105;BME280;38103;42.776;23.112;2023-02-10T00:50:02;95589.06;;;-9.57;92.16
52105;BME280;38103;42.776;23.112;2023-02-10T00:52:27;95648.44;;;-9.10;91.98
52105;BME280;38103;42.776;23.112;2023-02-10T00:54:53;95655.06;;;-9.05;91.21
52105;BME280;38103;42.776;23.112;2023-02-10T00:57:18;95644.69;;;-9.02;91.15
52105;BME280;38103;42.776;23.112;2023-02-10T00:59:43;95649.81;;;-9.02;91.07
52105;BME280;38103;42.776;23.112;2023-02-10T01:02:09;95646.50;;;-9.04;90.55
52105;BME280;38103;42.776;23.112;2023-02-10T01:04:35;95643.31;;;-9.10;90.60
52105;BME280;38103;42.776;23.112;2023-02-10T01:07:01;95643.44;;;-9.32;92.05
52105;BME280;38103;42.776;23.112;2023-02-10T01:09:26;95637.06;;;-9.43;92.84
52105;BME280;38103;42.776;23.112;2023-02-10T01:11:52;95642.63;;;-9.52;93.82
52105;BME280;38103;42.776;23.112;2023-02-10T01:14:17;95647.03;;;-9.56;94.34
52105;BME280;38103;42.776;23.112;2023-02-10T01:16:42;95630.63;;;-9.71;95.40
52105;BME280;38103;42.776;23.112;2023-02-10T01:19:08;95639.00;;;-9.67;94.98
52105;BME280;38103;42.776;23.112;2023-02-10T01:21:33;95631.25;;;-9.66;95.70
52105;BME280;38103;42.776;23.112;2023-02-10T01:24:02;95633.84;;;-9.46;94.26
52105;BME280;38103;42.776;23.112;2023-02-10T01:26:27;95634.47;;;-9.41;94.17
52105;BME280;38103;42.776;23.112;2023-02-10T01:28:53;95632.66;;;-9.39;93.97
52105;BME280;38103;42.776;23.112;2023-02-10T01:31:20;95633.19;;;-9.32;93.13
52105;BME280;38103;42.776;23.112;2023-02-10T01:33:46;95623.44;;;-9.24;92.60
52105;BME280;38103;42.776;23.112;2023-02-10T01:36:16;95551.97;;;-9.67;91.90
52105;BME280;38103;42.776;23.112;2023-02-10T01:38:42;95551.88;;;-9.66;92.31
52105;BME280;38103;42.776;23.112;2023-02-10T01:41:09;95621.41;;;-9.17;90.92
52105;BME280;38103;42.776;23.112;2023-02-10T01:46:24;95621.59;;;-9.20;91.29
52105;BME280;38103;42.776;23.112;2023-02-10T01:48:51;95612.44;;;-9.26;91.79
52105;BME280;38103;42.776;23.112;2023-02-10T01:51:19;95612.31;;;-9.42;92.73
52105;BME280;38103;42.776;23.112;2023-02-10T01:53:48;95615.06;;;-9.66;94.65
52105;BME280;38103;42.776;23.112;2023-02-10T01:56:14;95595.47;;;-9.87;95.98
52105;BME280;38103;42.776;23.112;2023-02-10T01:58:41;95603.59;;;-9.77;96.28
52105;BME280;38103;42.776;23.112;2023-02-10T02:01:08;95604.69;;;-9.82;96.66
52105;BME280;38103;42.776;23.112;2023-02-10T02:03:34;95601.91;;;-9.78;97.54
52105;BME280;38103;42.776;23.112;2023-02-10T02:05:59;95600.25;;;-9.79;97.39
52105;BME280;38103;42.776;23.112;2023-02-10T02:08:29;95596.09;;;-9.81;97.87
52105;BME280;38103;42.776;23.112;2023-02-10T02:18:47;95589.69;;;-9.51;95.60
52105;BME280;38103;42.776;23.112;2023-02-10T02:21:45;95594.03;;;-9.54;95.39
52105;BME280;38103;42.776;23.112;2023-02-10T02:24:45;95527.88;;;-10.02;95.24
52105;BME280;38103;42.776;23.112;2023-02-10T02:33:04;95583.00;;;-9.94;96.09
52105;BME280;38103;42.776;23.112;2023-02-10T02:35:44;95585.97;;;-10.04;96.34
52105;BME280;38103;42.776;23.112;2023-02-10T02:38:11;95543.44;;;-10.26;96.11
52105;BME280;38103;42.776;23.112;2023-02-10T02:40:36;95527.81;;;-10.40;96.79
52105;BME280;38103;42.776;23.112;2023-02-10T02:43:03;95577.41;;;-10.03;97.52
52105;BME280;38103;42.776;23.112;2023-02-10T02:51:27;95573.69;;;-9.95;96.05
52105;BME280;38103;42.776;23.112;2023-02-10T03:01:59;95546.88;;;-10.27;98.08
52105;BME280;38103;42.776;23.112;2023-02-10T03:04:31;95538.97;;;-10.41;98.51
52105;BME280;38103;42.776;23.112;2023-02-10T03:06:59;95570.94;;;-10.31;98.11
52105;BME280;38103;42.776;23.112;2023-02-10T03:09:24;95575.53;;;-10.39;98.26
52105;BME280;38103;42.776;23.112;2023-02-10T03:11:50;95572.44;;;-10.48;98.20
52105;BME280;38103;42.776;23.112;2023-02-10T03:14:15;95581.19;;;-10.52;98.37
52105;BME280;38103;42.776;23.112;2023-02-10T03:16:41;95573.19;;;-10.65;99.70
52105;BME280;38103;42.776;23.112;2023-02-10T03:19:06;95563.00;;;-10.67;100.00
52105;BME280;38103;42.776;23.112;2023-02-10T03:21:31;95570.75;;;-10.68;100.00
52105;BME280;38103;42.776;23.112;2023-02-10T03:23:57;95514.19;;;-11.02;100.00
52105;BME280;38103;42.776;23.112;2023-02-10T03:26:22;95573.25;;;-10.67;100.00
52105;BME280;38103;42.776;23.112;2023-02-10T03:28:48;95572.44;;;-10.67;100.00
52105;BME280;38103;42.776;23.112;2023-02-10T03:31:13;95578.34;;;-10.67;100.00
52105;BME280;38103;42.776;23.112;2023-02-10T03:33:38;95560.47;;;-10.67;100.00
52105;BME280;38103;42.776;23.112;2023-02-10T03:36:04;95562.91;;;-10.63;100.00
52105;BME280;38103;42.776;23.112;2023-02-10T03:38:30;95563.53;;;-10.58;100.00
52105;BME280;38103;42.776;23.112;2023-02-10T03:40:55;95572.22;;;-10.41;98.47
52105;BME280;38103;42.776;23.112;2023-02-10T03:43:21;95559.53;;;-10.45;99.24
52105;BME280;38103;42.776;23.112;2023-02-10T03:45:47;95557.88;;;-10.46;98.44
52105;BME280;38103;42.776;23.112;2023-02-10T03:48:13;95549.78;;;-10.56;98.26
52105;BME280;38103;42.776;23.112;2023-02-10T03:50:40;95551.28;;;-10.71;99.08
52105;BME280;38103;42.776;23.112;2023-02-10T03:53:06;95548.34;;;-10.82;99.82
52105;BME280;38103;42.776;23.112;2023-02-10T03:55:31;95546.53;;;-10.80;100.00
52105;BME280;38103;42.776;23.112;2023-02-10T03:57:56;95541.56;;;-10.83;100.00
52105;BME280;38103;42.776;23.112;2023-02-10T04:00:22;95546.44;;;-10.77;100.00
52105;BME280;38103;42.776;23.112;2023-02-10T04:02:48;95547.69;;;-10.67;100.00
52105;BME280;38103;42.776;23.112;2023-02-10T04:05:14;95539.00;;;-10.62;100.00
52105;BME280;38103;42.776;23.112;2023-02-10T04:07:39;95546.75;;;-10.45;98.75
52105;BME280;38103;42.776;23.112;2023-02-10T04:10:05;95546.22;;;-10.32;97.82
52105;BME280;38103;42.776;23.112;2023-02-10T04:12:31;95549.69;;;-10.33;97.44
52105;BME280;38103;42.776;23.112;2023-02-10T04:14:56;95538.97;;;-10.41;96.59
52105;BME280;38103;42.776;23.112;2023-02-10T04:17:22;95542.00;;;-10.52;97.07
52105;BME280;38103;42.776;23.112;2023-02-10T04:19:47;95538.34;;;-10.47;96.26
52105;BME280;38103;42.776;23.112;2023-02-10T04:22:12;95542.50;;;-10.44;97.42
52105;BME280;38103;42.776;23.112;2023-02-10T04:24:38;95545.75;;;-10.61;98.25
52105;BME280;38103;42.776;23.112;2023-02-10T04:27:05;95548.19;;;-10.58;98.58
52105;BME280;38103;42.776;23.112;2023-02-10T04:29:30;95542.44;;;-10.63;98.86
52105;BME280;38103;42.776;23.112;2023-02-10T04:31:55;95544.88;;;-10.60;99.04
52105;BME280;38103;42.776;23.112;2023-02-10T04:34:21;95512.28;;;-10.76;98.30
52105;BME280;38103;42.776;23.112;2023-02-10T04:36:46;95547.19;;;-10.54;98.27
52105;BME280;38103;42.776;23.112;2023-02-10T04:39:11;95549.25;;;-10.43;98.23
52105;BME280;38103;42.776;23.112;2023-02-10T04:41:37;95542.91;;;-10.34;98.00
52105;BME280;38103;42.776;23.112;2023-02-10T04:44:02;95552.31;;;-10.54;97.11
52105;BME280;38103;42.776;23.112;2023-02-10T04:46:28;95551.16;;;-10.68;98.81
52105;BME280;38103;42.776;23.112;2023-02-10T04:48:54;95551.66;;;-10.80;99.00
52105;BME280;38103;42.776;23.112;2023-02-10T04:51:19;95547.06;;;-10.93;99.68
52105;BME280;38103;42.776;23.112;2023-02-10T04:53:45;95554.00;;;-10.96;100.00
52105;BME280;38103;42.776;23.112;2023-02-10T04:56:12;95559.28;;;-11.01;100.00
52105;BME280;38103;42.776;23.112;2023-02-10T04:58:38;95527.72;;;-11.21;100.00
52105;BME280;38103;42.776;23.112;2023-02-10T05:01:03;95571.25;;;-10.81;100.00
52105;BME280;38103;42.776;23.112;2023-02-10T05:03:29;95575.03;;;-10.69;99.71
52105;BME280;38103;42.776;23.112;2023-02-10T05:05:54;95569.09;;;-10.69;98.77
52105;BME280;38103;42.776;23.112;2023-02-10T05:08:20;95542.28;;;-11.02;99.21
52105;BME280;38103;42.776;23.112;2023-02-10T05:10:48;95527.59;;;-11.18;99.86
52105;BME280;38103;42.776;23.112;2023-02-10T05:13:14;95570.94;;;-10.94;100.00
52105;BME280;38103;42.776;23.112;2023-02-10T05:15:39;95504.59;;;-11.39;100.00
52105;BME280;38103;42.776;23.112;2023-02-10T05:18:04;95580.09;;;-11.11;100.00
52105;BME280;38103;42.776;23.112;2023-02-10T05:20:30;95580.56;;;-11.23;100.00
52105;BME280;38103;42.776;23.112;2023-02-10T05:22:55;95587.72;;;-11.31;100.00
52105;BME280;38103;42.776;23.112;2023-02-10T05:25:21;95589.72;;;-11.40;100.00
52105;BME280;38103;42.776;23.112;2023-02-10T05:27:46;95592.25;;;-11.40;100.00
52105;BME280;38103;42.776;23.112;2023-02-10T05:30:12;95598.03;;;-11.35;100.00
52105;BME280;38103;42.776;23.112;2023-02-10T05:32:39;95596.25;;;-11.33;100.00
52105;BME280;38103;42.776;23.112;2023-02-10T05:35:05;95599.66;;;-11.34;100.00
52105;BME280;38103;42.776;23.112;2023-02-10T05:37:30;95599.44;;;-11.27;100.00
52105;BME280;38103;42.776;23.112;2023-02-10T05:39:56;95599.94;;;-11.17;100.00
52105;BME280;38103;42.776;23.112;2023-02-10T05:42:21;95600.53;;;-11.11;100.00
52105;BME280;38103;42.776;23.112;2023-02-10T05:44:46;95596.84;;;-11.03;100.00
52105;BME280;38103;42.776;23.112;2023-02-10T05:47:12;95602.59;;;-10.98;100.00
52105;BME280;38103;42.776;23.112;2023-02-10T05:49:37;95608.44;;;-10.73;100.00
52105;BME280;38103;42.776;23.112;2023-02-10T05:52:03;95612.69;;;-10.51;100.00
52105;BME280;38103;42.776;23.112;2023-02-10T05:54:28;95614.75;;;-10.40;100.00
52105;BME280;38103;42.776;23.112;2023-02-10T05:56:55;95613.88;;;-10.18;100.00
52105;BME280;38103;42.776;23.112;2023-02-10T05:59:20;95621.16;;;-10.09;99.34
52105;BME280;38103;42.776;23.112;2023-02-10T06:01:46;95609.63;;;-9.99;98.51
52105;BME280;38103;42.776;23.112;2023-02-10T06:04:11;95624.56;;;-9.89;98.48
52105;BME280;38103;42.776;23.112;2023-02-10T06:06:37;95572.41;;;-10.06;98.04
52105;BME280;38103;42.776;23.112;2023-02-10T06:09:03;95600.88;;;-9.73;97.38
52105;BME280;38103;42.776;23.112;2023-02-10T06:11:28;95630.97;;;-9.40;97.19
52105;BME280;38103;42.776;23.112;2023-02-10T06:13:54;95625.16;;;-9.24;95.97
52105;BME280;38103;42.776;23.112;2023-02-10T06:16:19;95627.38;;;-8.97;95.26
52105;BME280;38103;42.776;23.112;2023-02-10T06:18:45;95625.44;;;-8.56;94.28
52105;BME280;38103;42.776;23.112;2023-02-10T06:21:12;95632.38;;;-8.23;93.52
52105;BME280;38103;42.776;23.112;2023-02-10T06:23:38;95637.94;;;-7.97;91.44
52105;BME280;38103;42.776;23.112;2023-02-10T06:26:03;95628.69;;;-7.83;91.32
52105;BME280;38103;42.776;23.112;2023-02-10T06:28:29;95624.75;;;-7.72;89.51
52105;BME280;38103;42.776;23.112;2023-02-10T06:30:55;95631.91;;;-7.62;89.41
52105;BME280;38103;42.776;23.112;2023-02-10T06:33:20;95611.53;;;-7.48;89.62
52105;BME280;38103;42.776;23.112;2023-02-10T06:35:46;95635.81;;;-6.73;87.87
52105;BME280;38103;42.776;23.112;2023-02-10T06:38:12;95627.31;;;-6.28;84.09
52105;BME280;38103;42.776;23.112;2023-02-10T06:40:37;95633.91;;;-5.93;81.58
52105;BME280;38103;42.776;23.112;2023-02-10T06:43:03;95633.28;;;-5.67;78.77
52105;BME280;38103;42.776;23.112;2023-02-10T06:45:28;95591.84;;;-5.64;76.75
52105;BME280;38103;42.776;23.112;2023-02-10T06:47:54;95637.19;;;-6.06;77.71
52105;BME280;38103;42.776;23.112;2023-02-10T06:50:20;95642.69;;;-5.52;77.40
52105;BME280;38103;42.776;23.112;2023-02-10T06:52:46;95644.72;;;-5.00;76.79
52105;BME280;38103;42.776;23.112;2023-02-10T06:55:12;95650.63;;;-4.70;74.54
52105;BME280;38103;42.776;23.112;2023-02-10T06:57:38;95647.88;;;-4.26;73.05
52105;BME280;38103;42.776;23.112;2023-02-10T07:00:05;95642.88;;;-3.88;71.64
52105;BME280;38103;42.776;23.112;2023-02-10T07:02:32;95634.28;;;-3.76;70.82
52105;BME280;38103;42.776;23.112;2023-02-10T07:04:58;95614.22;;;-3.33;68.31
52105;BME280;38103;42.776;23.112;2023-02-10T07:07:23;95639.44;;;-2.86;66.55
52105;BME280;38103;42.776;23.112;2023-02-10T07:09:49;95645.00;;;-3.17;67.06
52105;BME280;38103;42.776;23.112;2023-02-10T07:12:14;95633.25;;;-2.59;66.70
52105;BME280;38103;42.776;23.112;2023-02-10T07:14:39;95627.69;;;-2.29;64.88
52105;BME280;38103;42.776;23.112;2023-02-10T07:17:05;95630.25;;;-2.41;64.19
52105;BME280;38103;42.776;23.112;2023-02-10T07:19:30;95631.16;;;-2.17;61.98
52105;BME280;38103;42.776;23.112;2023-02-10T07:21:57;95633.63;;;-2.16;62.04
52105;BME280;38103;42.776;23.112;2023-02-10T07:24:22;95644.97;;;-2.05;59.57
52105;BME280;38103;42.776;23.112;2023-02-10T07:26:47;95616.03;;;-1.87;58.89
52105;BME280;38103;42.776;23.112;2023-02-10T07:29:13;95634.72;;;-1.48;57.82
52105;BME280;38103;42.776;23.112;2023-02-10T07:31:38;95638.03;;;-1.34;57.75
52105;BME280;38103;42.776;23.112;2023-02-10T07:34:04;95634.59;;;-2.41;58.59
52105;BME280;38103;42.776;23.112;2023-02-10T07:36:29;95644.16;;;-3.04;61.70
52105;BME280;38103;42.776;23.112;2023-02-10T07:38:54;95643.78;;;-3.24;61.60
52105;BME280;38103;42.776;23.112;2023-02-10T07:41:20;95641.19;;;-2.73;61.75
52105;BME280;38103;42.776;23.112;2023-02-10T07:43:45;95645.47;;;-2.61;61.98
52105;BME280;38103;42.776;23.112;2023-02-10T07:46:10;95641.94;;;-2.60;60.38
52105;BME280;38103;42.776;23.112;2023-02-10T07:48:36;95642.66;;;-1.97;58.14
52105;BME280;38103;42.776;23.112;2023-02-10T07:51:01;95601.91;;;-1.83;56.21
52105;BME280;38103;42.776;23.112;2023-02-10T07:53:27;95642.28;;;-1.21;54.49
52105;BME280;38103;42.776;23.112;2023-02-10T07:55:52;95648.59;;;-1.83;54.35
52105;BME280;38103;42.776;23.112;2023-02-10T07:58:18;95658.75;;;-1.57;55.30
52105;BME280;38103;42.776;23.112;2023-02-10T08:00:43;95636.72;;;-1.17;52.71
52105;BME280;38103;42.776;23.112;2023-02-10T08:03:13;95649.50;;;-0.69;52.13
52105;BME280;38103;42.776;23.112;2023-02-10T08:05:38;95647.03;;;-0.82;51.14
52105;BME280;38103;42.776;23.112;2023-02-10T08:08:04;95638.66;;;-0.74;51.84
52105;BME280;38103;42.776;23.112;2023-02-10T08:10:29;95640.31;;;-1.88;53.14
52105;BME280;38103;42.776;23.112;2023-02-10T08:12:54;95643.22;;;-1.34;52.80
52105;BME280;38103;42.776;23.112;2023-02-10T08:15:20;95644.03;;;-1.33;52.76
52105;BME280;38103;42.776;23.112;2023-02-10T08:17:47;95647.19;;;-1.18;52.62
52105;BME280;38103;42.776;23.112;2023-02-10T08:20:12;95647.69;;;-1.02;52.84
52105;BME280;38103;42.776;23.112;2023-02-10T08:22:38;95604.41;;;-1.24;53.08
52105;BME280;38103;42.776;23.112;2023-02-10T08:25:04;95641.66;;;-1.02;51.96
52105;BME280;38103;42.776;23.112;2023-02-10T08:27:29;95638.44;;;-1.86;52.15
52105;BME280;38103;42.776;23.112;2023-02-10T08:29:55;95632.56;;;-1.54;53.89
52105;BME280;38103;42.776;23.112;2023-02-10T08:32:21;95633.28;;;-1.06;52.07
52105;BME280;38103;42.776;23.112;2023-02-10T08:34:48;95635.63;;;-1.03;52.27
52105;BME280;38103;42.776;23.112;2023-02-10T08:37:14;95633.63;;;-1.33;54.13
52105;BME280;38103;42.776;23.112;2023-02-10T08:39:40;95614.19;;;-1.16;52.31
52105;BME280;38103;42.776;23.112;2023-02-10T08:42:06;95630.91;;;-0.86;52.45
52105;BME280;38103;42.776;23.112;2023-02-10T08:44:31;95587.28;;;-1.15;52.10
52105;BME280;38103;42.776;23.112;2023-02-10T08:46:57;95637.56;;;-0.60;50.23
52105;BME280;38103;42.776;23.112;2023-02-10T08:49:22;95637.63;;;-0.39;50.78
52105;BME280;38103;42.776;23.112;2023-02-10T08:51:51;95633.06;;;-0.25;50.20
52105;BME280;38103;42.776;23.112;2023-02-10T08:54:16;95634.53;;;-0.32;49.62
52105;BME280;38103;42.776;23.112;2023-02-10T08:56:41;95628.63;;;-0.35;50.26
52105;BME280;38103;42.776;23.112;2023-02-10T08:59:07;95625.41;;;-0.60;48.64
52105;BME280;38103;42.776;23.112;2023-02-10T09:01:32;95628.81;;;-1.04;50.75
52105;BME280;38103;42.776;23.112;2023-02-10T09:03:58;95629.75;;;-1.28;52.76
52105;BME280;38103;42.776;23.112;2023-02-10T09:06:29;95630.69;;;-1.52;52.61
52105;BME280;38103;42.776;23.112;2023-02-10T09:08:56;95620.31;;;-1.17;50.88
52105;BME280;38103;42.776;23.112;2023-02-10T09:11:22;95608.72;;;-1.02;52.31
52105;BME280;38103;42.776;23.112;2023-02-10T09:13:49;95617.91;;;-0.97;50.52
52105;BME280;38103;42.776;23.112;2023-02-10T09:16:15;95620.00;;;-0.80;50.05
52105;BME280;38103;42.776;23.112;2023-02-10T09:18:40;95627.28;;;-0.62;49.10
52105;BME280;38103;42.776;23.112;2023-02-10T09:21:06;95620.75;;;-0.77;51.17
52105;BME280;38103;42.776;23.112;2023-02-10T09:23:31;95617.53;;;-0.37;52.19
52105;BME280;38103;42.776;23.112;2023-02-10T09:25:58;95613.50;;;-0.08;51.74
52105;BME280;38103;42.776;23.112;2023-02-10T09:28:25;95608.50;;;-0.21;49.60
52105;BME280;38103;42.776;23.112;2023-02-10T09:30:51;95609.28;;;-0.42;49.45
52105;BME280;38103;42.776;23.112;2023-02-10T09:33:16;95608.16;;;-0.61;49.44
52105;BME280;38103;42.776;23.112;2023-02-10T09:35:42;95613.59;;;-1.43;50.37
52105;BME280;38103;42.776;23.112;2023-02-10T09:38:09;95563.97;;;-1.61;51.35
52105;BME280;38103;42.776;23.112;2023-02-10T09:40:50;95616.06;;;-1.07;50.33
52105;BME280;38103;42.776;23.112;2023-02-10T09:49:18;95601.56;;;-0.65;50.92
52105;BME280;38103;42.776;23.112;2023-02-10T09:54:44;95595.94;;;-0.82;49.83
52105;BME280;38103;42.776;23.112;2023-02-10T09:57:17;95588.53;;;-0.53;50.37
52105;BME280;38103;42.776;23.112;2023-02-10T09:59:45;95592.63;;;-0.18;50.58
52105;BME280;38103;42.776;23.112;2023-02-10T10:02:21;95591.09;;;-0.42;49.29
52105;BME280;38103;42.776;23.112;2023-02-10T10:04:50;95585.00;;;-0.52;49.82
52105;BME280;38103;42.776;23.112;2023-02-10T10:07:26;95585.00;;;-0.52;49.73
52105;BME280;38103;42.776;23.112;2023-02-10T10:10:08;95574.91;;;-1.11;51.43
52105;BME280;38103;42.776;23.112;2023-02-10T10:12:38;95574.25;;;-0.92;52.52
52105;BME280;38103;42.776;23.112;2023-02-10T10:15:13;95572.78;;;-0.73;51.87
52105;BME280;38103;42.776;23.112;2023-02-10T10:23:22;95562.50;;;-1.19;53.27
52105;BME280;38103;42.776;23.112;2023-02-10T10:26:07;95570.25;;;-0.96;53.41
52105;BME280;38103;42.776;23.112;2023-02-10T10:31:29;95561.16;;;-0.58;51.64
52105;BME280;38103;42.776;23.112;2023-02-10T10:34:01;95500.91;;;-1.06;51.75
52105;BME280;38103;42.776;23.112;2023-02-10T10:36:35;95548.25;;;-0.81;51.85
52105;BME280;38103;42.776;23.112;2023-02-10T10:39:11;95546.38;;;-0.90;51.54
52105;BME280;38103;42.776;23.112;2023-02-10T10:41:38;95496.09;;;-1.78;53.83
52105;BME280;38103;42.776;23.112;2023-02-10T10:44:07;95535.16;;;-1.35;52.15
52105;BME280;38103;42.776;23.112;2023-02-10T10:49:09;95525.72;;;-1.25;53.06
52105;BME280;38103;42.776;23.112;2023-02-10T10:51:35;95530.72;;;-1.56;52.70
52105;BME280;38103;42.776;23.112;2023-02-10T10:54:03;95526.06;;;-1.18;52.76
52105;BME280;38103;42.776;23.112;2023-02-10T10:56:51;95526.34;;;-0.99;51.04
52105;BME280;38103;42.776;23.112;2023-02-10T10:59:23;95517.88;;;-0.69;51.74
52105;BME280;38103;42.776;23.112;2023-02-10T11:01:51;95513.16;;;-1.08;50.49
52105;BME280;38103;42.776;23.112;2023-02-10T11:04:26;95516.06;;;-0.90;50.47
52105;BME280;38103;42.776;23.112;2023-02-10T11:06:56;95520.59;;;-0.70;50.56
52105;BME280;38103;42.776;23.112;2023-02-10T11:09:31;95514.44;;;-0.69;49.11
52105;BME280;38103;42.776;23.112;2023-02-10T11:12:06;95510.22;;;-0.70;49.82
52105;BME280;38103;42.776;23.112;2023-02-10T11:14:40;95501.59;;;-0.49;50.55
52105;BME280;38103;42.776;23.112;2023-02-10T11:17:19;95498.56;;;-0.54;49.04
52105;BME280;38103;42.776;23.112;2023-02-10T11:19:56;95498.50;;;-0.43;49.61
52105;BME280;38103;42.776;23.112;2023-02-10T11:22:22;95488.72;;;-0.29;49.74
52105;BME280;38103;42.776;23.112;2023-02-10T11:24:53;95497.84;;;-0.14;47.95
52105;BME280;38103;42.776;23.112;2023-02-10T11:27:19;95496.03;;;0.08;47.60
52105;BME280;38103;42.776;23.112;2023-02-10T11:29:51;95487.53;;;0.48;47.09
52105;BME280;38103;42.776;23.112;2023-02-10T11:32:24;95483.69;;;0.52;45.17
52105;BME280;38103;42.776;23.112;2023-02-10T11:34:53;95454.81;;;0.55;44.54
52105;BME280;38103;42.776;23.112;2023-02-10T11:37:22;95487.75;;;1.06;46.15
52105;BME280;38103;42.776;23.112;2023-02-10T11:39:50;95436.19;;;0.60;43.81
52105;BME280;38103;42.776;23.112;2023-02-10T11:42:23;95472.28;;;0.84;44.83
52105;BME280;38103;42.776;23.112;2023-02-10T11:44:56;95475.03;;;1.03;43.91
52105;BME280;38103;42.776;23.112;2023-02-10T11:47:25;95468.97;;;1.22;43.55
52105;BME280;38103;42.776;23.112;2023-02-10T11:49:51;95447.06;;;1.05;44.04
52105;BME280;38103;42.776;23.112;2023-02-10T11:52:18;95466.34;;;1.42;46.29
52105;BME280;38103;42.776;23.112;2023-02-10T11:54:45;95465.25;;;1.44;44.08
52105;BME280;38103;42.776;23.112;2023-02-10T12:14:26;95453.97;;;2.12;42.41
52105;BME280;38103;42.776;23.112;2023-02-10T12:17:14;95441.47;;;2.16;41.52
52105;BME280;38103;42.776;23.112;2023-02-10T12:31:10;95425.50;;;0.43;46.99
52105;BME280;38103;42.776;23.112;2023-02-10T12:33:54;95424.00;;;0.70;46.69
52105;BME280;38103;42.776;23.112;2023-02-10T12:42:37;95397.72;;;0.53;43.82
52105;BME280;38103;42.776;23.112;2023-02-10T12:52:55;95417.66;;;1.42;44.36
52105;BME280;38103;42.776;23.112;2023-02-10T12:58:29;95412.94;;;1.66;43.72
52105;BME280;38103;42.776;23.112;2023-02-10T13:01:17;95420.03;;;1.06;43.74
52105;BME280;38103;42.776;23.112;2023-02-10T13:03:47;95419.50;;;1.12;45.28
52105;BME280;38103;42.776;23.112;2023-02-10T13:11:48;95410.56;;;1.25;43.48
52105;BME280;38103;42.776;23.112;2023-02-10T13:14:25;95410.56;;;1.25;43.62
52105;BME280;38103;42.776;23.112;2023-02-10T13:16:54;95408.38;;;0.80;43.61
52105;BME280;38103;42.776;23.112;2023-02-10T13:24:41;95418.00;;;1.09;46.10
52105;BME280;38103;42.776;23.112;2023-02-10T13:27:41;95396.06;;;0.72;43.21
52105;BME280;38103;42.776;23.112;2023-02-10T13:35:45;95412.78;;;0.99;42.99
52105;BME280;38103;42.776;23.112;2023-02-10T13:38:17;95413.88;;;0.87;43.35
52105;BME280;38103;42.776;23.112;2023-02-10T13:40:50;95424.03;;;1.10;43.09
52105;BME280;38103;42.776;23.112;2023-02-10T13:43:32;95419.47;;;1.32;42.83
52105;BME280;38103;42.776;23.112;2023-02-10T13:45:59;95413.25;;;1.53;42.19
52105;BME280;38103;42.776;23.112;2023-02-10T13:48:31;95415.31;;;1.59;41.80
52105;BME280;38103;42.776;23.112;2023-02-10T13:51:06;95409.34;;;1.77;41.65
52105;BME280;38103;42.776;23.112;2023-02-10T14:06:48;95409.06;;;1.80;42.34
52105;BME280;38103;42.776;23.112;2023-02-10T14:11:59;95411.38;;;1.83;41.93
52105;BME280;38103;42.776;23.112;2023-02-10T14:14:28;95405.75;;;1.88;43.25
52105;BME280;38103;42.776;23.112;2023-02-10T14:19:35;95407.97;;;1.73;42.18
52105;BME280;38103;42.776;23.112;2023-02-10T14:22:01;95399.59;;;1.79;43.68
52105;BME280;38103;42.776;23.112;2023-02-10T14:24:30;95395.53;;;1.95;42.69
52105;BME280;38103;42.776;23.112;2023-02-10T14:27:00;95398.66;;;2.08;42.58
52105;BME280;38103;42.776;23.112;2023-02-10T14:29:28;95406.28;;;2.20;42.46
52105;BME280;38103;42.776;23.112;2023-02-10T14:31:56;95404.19;;;2.23;42.23
52105;BME280;38103;42.776;23.112;2023-02-10T14:34:36;95398.44;;;2.20;40.86
52105;BME280;38103;42.776;23.112;2023-02-10T14:37:16;95394.44;;;2.26;42.58
52105;BME280;38103;42.776;23.112;2023-02-10T14:39:59;95400.09;;;2.21;42.42
52105;BME280;38103;42.776;23.112;2023-02-10T14:42:31;95394.88;;;2.21;42.63
52105;BME280;38103;42.776;23.112;2023-02-10T14:45:00;95397.03;;;2.26;41.59
52105;BME280;38103;42.776;23.112;2023-02-10T14:47:31;95396.50;;;2.22;42.80
52105;BME280;38103;42.776;23.112;2023-02-10T14:49:58;95391.28;;;2.22;42.28
52105;BME280;38103;42.776;23.112;2023-02-10T14:52:29;95399.44;;;2.19;43.31
52105;BME280;38103;42.776;23.112;2023-02-10T14:54:55;95393.22;;;2.20;43.12
52105;BME280;38103;42.776;23.112;2023-02-10T14:57:23;95396.00;;;2.18;43.55
52105;BME280;38103;42.776;23.112;2023-02-10T14:59:58;95388.88;;;2.10;43.20
52105;BME280;38103;42.776;23.112;2023-02-10T15:02:30;95348.09;;;1.81;43.88